createdAt,value
2023-04-16T00:01:35.012Z,1.55
2023-04-16T00:04:01.933Z,1.77
2023-04-16T00:06:28.700Z,1.77
2023-04-16T00:08:55.365Z,1.48
2023-04-16T00:11:22.250Z,1.10
2023-04-16T00:13:49.123Z,1.20
2023-04-16T00:16:16.169Z,1.50
2023-04-16T00:18:42.951Z,1.67
2023-04-16T00:21:09.657Z,1.20
2023-04-16T00:23:36.332Z,1.42
2023-04-16T00:26:02.980Z,1.60
2023-04-16T00:28:29.754Z,2.45
2023-04-16T00:30:56.382Z,1.60
2023-04-16T00:33:24.311Z,1.38
2023-04-16T00:35:51.269Z,1.42
2023-04-16T00:38:18.254Z,1.60
2023-04-16T00:40:44.887Z,1.75
2023-04-16T00:43:11.452Z,1.42
2023-04-16T00:45:38.578Z,1.83
2023-04-16T00:48:05.976Z,2.08
2023-04-16T00:50:33.656Z,1.52
2023-04-16T00:53:01.630Z,1.55
2023-04-16T00:55:28.420Z,1.50
2023-04-16T00:57:55.039Z,1.27
2023-04-16T01:00:21.686Z,1.48
2023-04-16T01:02:48.529Z,1.40
2023-04-16T01:05:15.712Z,1.25
2023-04-16T01:07:42.357Z,1.92
2023-04-16T01:10:09.077Z,2.17
2023-04-16T01:12:35.878Z,1.58
2023-04-16T01:15:02.894Z,1.40
2023-04-16T01:17:29.533Z,1.55
2023-04-16T01:20:00.363Z,1.33
2023-04-16T01:22:28.615Z,2.05
2023-04-16T01:24:55.203Z,1.63
2023-04-16T01:27:21.744Z,1.50
2023-04-16T01:29:48.456Z,3.10
2023-04-16T01:32:15.085Z,2.42
2023-04-16T01:34:41.798Z,1.88
2023-04-16T01:37:08.516Z,1.70
2023-04-16T01:39:35.097Z,1.70
2023-04-16T01:42:02.342Z,1.65
2023-04-16T01:44:29.064Z,1.80
2023-04-16T01:46:55.756Z,1.92
2023-04-16T01:49:23.172Z,2.17
2023-04-16T01:51:49.826Z,2.83
2023-04-16T01:54:16.432Z,1.95
2023-04-16T01:56:43.121Z,1.80
2023-04-16T01:59:09.843Z,1.75
2023-04-16T02:01:36.662Z,2.60
2023-04-16T02:04:03.433Z,1.90
2023-04-16T02:06:30.632Z,1.25
2023-04-16T02:08:57.214Z,1.70
2023-04-16T02:11:23.760Z,2.03
2023-04-16T02:13:50.553Z,1.98
2023-04-16T02:16:17.141Z,1.65
2023-04-16T02:18:43.789Z,1.55
2023-04-16T02:21:10.495Z,1.65
2023-04-16T02:23:37.453Z,1.63
2023-04-16T02:26:04.187Z,1.38
2023-04-16T02:28:30.971Z,1.50
2023-04-16T02:30:57.576Z,1.20
2023-04-16T02:33:26.460Z,1.40
2023-04-16T02:35:53.219Z,1.33
2023-04-16T02:38:19.955Z,1.52
2023-04-16T02:40:46.637Z,1.55
2023-04-16T02:43:13.186Z,1.80
2023-04-16T02:45:39.809Z,1.63
2023-04-16T02:48:08.744Z,1.17
2023-04-16T02:50:35.409Z,1.52
2023-04-16T02:53:02.101Z,1.45
2023-04-16T02:55:29.549Z,1.98
2023-04-16T02:57:56.174Z,2.55
2023-04-16T03:00:22.878Z,1.50
2023-04-16T03:02:49.621Z,1.58
2023-04-16T03:05:16.353Z,1.23
2023-04-16T03:07:42.971Z,1.25
2023-04-16T03:10:10.263Z,1.58
2023-04-16T03:12:36.827Z,1.85
2023-04-16T03:15:03.646Z,1.63
2023-04-16T03:17:30.418Z,1.65
2023-04-16T03:19:57.072Z,2.10
2023-04-16T03:22:23.762Z,1.85
2023-04-16T03:24:50.376Z,1.70
2023-04-16T03:27:16.979Z,2.85
2023-04-16T03:29:43.682Z,1.77
2023-04-16T03:32:11.596Z,1.80
2023-04-16T03:34:39.761Z,1.95
2023-04-16T03:37:06.639Z,2.65
2023-04-16T03:39:34.568Z,2.08
2023-04-16T03:42:02.234Z,1.52
2023-04-16T03:44:29.081Z,1.42
2023-04-16T03:46:55.841Z,1.25
2023-04-16T03:49:22.615Z,1.80
2023-04-16T03:51:49.300Z,1.80
2023-04-16T03:54:15.984Z,1.55
2023-04-16T03:56:43.083Z,2.13
2023-04-16T03:59:10.271Z,1.63
2023-04-16T04:01:37.056Z,1.60
2023-04-16T04:04:04.019Z,1.17
2023-04-16T04:06:31.141Z,1.90
2023-04-16T04:08:57.862Z,1.88
2023-04-16T04:11:24.746Z,1.63
2023-04-16T04:13:51.292Z,1.75
2023-04-16T04:16:18.061Z,1.80
2023-04-16T04:18:44.720Z,2.03
2023-04-16T04:21:11.343Z,2.38
2023-04-16T04:23:38.034Z,1.50
2023-04-16T04:26:05.767Z,2.22
2023-04-16T04:28:33.051Z,1.80
2023-04-16T04:31:00.645Z,1.90
2023-04-16T04:33:27.735Z,1.88
2023-04-16T04:35:54.967Z,1.88
2023-04-16T04:38:25.167Z,2.35
2023-04-16T04:40:52.860Z,2.30
2023-04-16T04:43:20.229Z,2.08
2023-04-16T04:45:46.974Z,1.50
2023-04-16T04:48:13.675Z,1.40
2023-04-16T04:50:41.103Z,2.05
2023-04-16T04:53:10.448Z,2.17
2023-04-16T04:55:38.988Z,2.22
2023-04-16T04:58:06.854Z,2.75
2023-04-16T05:00:34.710Z,2.53
2023-04-16T05:03:06.872Z,1.42
2023-04-16T05:05:33.604Z,1.63
2023-04-16T05:08:00.232Z,1.65
2023-04-16T05:10:28.210Z,2.30
2023-04-16T05:12:54.855Z,1.60
2023-04-16T05:15:21.617Z,2.47
2023-04-16T05:17:48.229Z,3.08
2023-04-16T05:20:14.957Z,2.90
2023-04-16T05:22:41.569Z,2.22
2023-04-16T05:25:08.848Z,2.20
2023-04-16T05:27:37.144Z,2.45
2023-04-16T05:30:04.329Z,3.17
2023-04-16T05:32:31.020Z,2.22
2023-04-16T05:34:57.781Z,2.50
2023-04-16T05:37:24.365Z,2.65
2023-04-16T05:39:51.155Z,2.92
2023-04-16T05:42:17.743Z,2.10
2023-04-16T05:44:44.331Z,2.08
2023-04-16T05:47:11.033Z,2.13
2023-04-16T05:49:37.669Z,2.30
2023-04-16T05:52:05.683Z,2.30
2023-04-16T05:54:32.283Z,2.73
2023-04-16T05:56:59.576Z,2.65
2023-04-16T05:59:26.296Z,2.90
2023-04-16T06:01:52.869Z,2.95
2023-04-16T06:04:19.526Z,3.85
2023-04-16T06:06:46.313Z,2.47
2023-04-16T06:09:12.915Z,4.53
2023-04-16T06:11:39.616Z,4.60
2023-04-16T06:14:06.242Z,2.97
2023-04-16T06:16:32.893Z,3.08
2023-04-16T06:18:59.591Z,3.20
2023-04-16T06:21:26.701Z,4.20
2023-04-16T06:23:55.053Z,3.30
2023-04-16T06:26:21.699Z,3.92
2023-04-16T06:28:48.432Z,5.22
2023-04-16T06:31:15.039Z,4.28
2023-04-16T06:33:41.694Z,4.65
2023-04-16T06:36:08.260Z,4.35
2023-04-16T06:38:36.035Z,3.97
2023-04-16T06:41:02.617Z,4.93
2023-04-16T06:43:30.147Z,5.15
2023-04-16T06:45:56.707Z,4.18
2023-04-16T06:48:23.280Z,3.03
2023-04-16T06:50:49.983Z,4.82
2023-04-16T06:53:16.620Z,4.25
2023-04-16T06:55:43.192Z,3.30
2023-04-16T06:58:09.917Z,3.22
2023-04-16T07:00:36.492Z,3.35
2023-04-16T07:03:04.260Z,3.65
2023-04-16T07:05:32.748Z,3.15
2023-04-16T07:07:59.540Z,2.78
2023-04-16T07:10:26.261Z,2.50
2023-04-16T07:12:52.914Z,3.20
2023-04-16T07:15:19.587Z,2.60
2023-04-16T07:17:46.335Z,3.17
2023-04-16T07:20:12.914Z,3.05
2023-04-16T07:22:39.529Z,2.90
2023-04-16T07:25:06.466Z,3.38
2023-04-16T07:27:33.050Z,3.22
2023-04-16T07:30:03.418Z,3.45
2023-04-16T07:32:30.099Z,3.22
2023-04-16T07:34:57.058Z,3.13
2023-04-16T07:37:23.597Z,2.90
2023-04-16T07:39:50.185Z,2.67
2023-04-16T07:42:19.295Z,5.30
2023-04-16T07:44:46.099Z,5.65
2023-04-16T07:47:12.718Z,4.32
2023-04-16T07:49:39.531Z,4.00
2023-04-16T07:52:06.129Z,4.18
2023-04-16T07:54:32.735Z,4.55
2023-04-16T07:56:59.269Z,5.25
2023-04-16T07:59:26.279Z,4.25
2023-04-16T08:01:56.491Z,2.83
2023-04-16T08:04:25.763Z,4.55
2023-04-16T08:06:53.819Z,3.90
2023-04-16T08:09:21.702Z,3.65
2023-04-16T08:11:49.989Z,3.38
2023-04-16T08:14:17.836Z,3.42
2023-04-16T08:16:45.001Z,3.67
2023-04-16T08:19:11.746Z,3.83
2023-04-16T08:21:38.697Z,4.35
2023-04-16T08:24:05.542Z,4.15
2023-04-16T08:26:32.123Z,4.38
2023-04-16T08:28:58.699Z,3.70
2023-04-16T08:31:26.348Z,4.10
2023-04-16T08:33:53.074Z,4.25
2023-04-16T08:36:19.712Z,3.92
2023-04-16T08:38:46.629Z,3.95
2023-04-16T08:41:14.049Z,4.72
2023-04-16T08:43:45.273Z,4.28
2023-04-16T08:46:12.697Z,4.38
2023-04-16T08:48:43.498Z,3.15
2023-04-16T08:51:11.199Z,3.60
2023-04-16T08:53:59.531Z,3.40
2023-04-16T08:56:27.222Z,3.53
2023-04-16T08:58:55.298Z,4.07
2023-04-16T09:03:49.429Z,3.50
2023-04-16T09:06:17.535Z,3.40
2023-04-16T09:08:45.763Z,3.33
2023-04-16T09:11:13.854Z,3.58
2023-04-16T09:16:10.979Z,3.65
2023-04-16T09:18:37.649Z,4.15
2023-04-16T09:21:04.829Z,4.20
2023-04-16T09:23:31.718Z,3.90
2023-04-16T09:25:59.489Z,4.75
2023-04-16T09:28:39.973Z,4.55
2023-04-16T09:31:10.958Z,4.00
2023-04-16T09:33:37.661Z,4.20
2023-04-16T09:36:05.812Z,4.18
2023-04-16T09:41:19.942Z,3.75
2023-04-16T09:44:02.102Z,3.42
2023-04-16T09:46:35.013Z,3.30
2023-04-16T09:49:15.645Z,3.38
2023-04-16T09:51:47.002Z,3.22
2023-04-16T09:54:13.752Z,3.67
2023-04-16T09:56:46.418Z,4.22
2023-04-16T09:59:20.489Z,3.97
2023-04-16T10:01:47.281Z,3.33
2023-04-16T10:04:13.923Z,3.00
2023-04-16T10:06:40.638Z,3.25
2023-04-16T10:09:09.380Z,3.17
2023-04-16T10:11:37.158Z,2.92
2023-04-16T10:14:03.858Z,3.23
2023-04-16T10:16:31.079Z,2.75
2023-04-16T10:18:58.975Z,3.13
2023-04-16T10:21:26.505Z,3.15
2023-04-16T10:23:53.319Z,2.23
2023-04-16T10:26:20.110Z,2.55
2023-04-16T10:28:46.984Z,2.90
2023-04-16T10:31:14.015Z,3.13
2023-04-16T10:33:42.124Z,3.67
2023-04-16T10:36:09.971Z,3.05
2023-04-16T10:38:40.134Z,3.13
2023-04-16T10:41:07.928Z,3.33
2023-04-16T10:43:41.107Z,3.60
2023-04-16T10:46:33.151Z,3.55
2023-04-16T10:49:15.280Z,6.70
2023-04-16T10:51:42.222Z,2.58
2023-04-16T10:54:08.896Z,2.85
2023-04-16T10:56:36.733Z,2.47
2023-04-16T10:59:07.846Z,3.63
2023-04-16T11:01:36.652Z,3.83
2023-04-16T11:04:22.070Z,5.32
2023-04-16T11:07:04.297Z,3.35
2023-04-16T11:10:02.443Z,3.35
2023-04-16T11:15:01.228Z,3.05
2023-04-16T11:17:39.126Z,2.30
2023-04-16T11:20:18.879Z,4.00
2023-04-16T11:22:48.503Z,2.90
2023-04-16T11:25:26.406Z,3.23
2023-04-16T11:27:53.681Z,2.97
2023-04-16T11:30:36.857Z,3.78
2023-04-16T11:33:04.749Z,3.72
2023-04-16T11:35:31.572Z,3.75
2023-04-16T11:38:01.099Z,3.00
2023-04-16T11:40:31.497Z,3.10
2023-04-16T11:43:13.891Z,3.05
2023-04-16T11:45:55.490Z,2.95
2023-04-16T11:48:22.262Z,2.90
2023-04-16T11:50:56.510Z,3.20
2023-04-16T11:53:23.093Z,3.15
2023-04-16T11:55:49.819Z,3.35
2023-04-16T11:58:16.651Z,3.78
2023-04-16T12:00:45.157Z,3.10
2023-04-16T12:03:12.024Z,2.80
2023-04-16T12:05:40.776Z,2.35
2023-04-16T12:10:37.652Z,2.70
2023-04-16T12:13:15.387Z,2.85
2023-04-16T12:15:53.563Z,3.65
2023-04-16T12:18:23.270Z,2.53
2023-04-16T12:20:53.467Z,3.58
2023-04-16T12:23:26.981Z,3.60
2023-04-16T12:25:54.331Z,2.85
2023-04-16T12:28:34.994Z,2.97
2023-04-16T12:31:02.783Z,2.95
2023-04-16T12:33:29.538Z,2.58
2023-04-16T12:35:56.834Z,2.95
2023-04-16T12:38:24.602Z,2.80
2023-04-16T12:40:51.986Z,2.80
2023-04-16T12:43:19.849Z,2.75
2023-04-16T12:45:46.598Z,2.85
2023-04-16T12:48:14.727Z,2.90
2023-04-16T12:50:44.171Z,3.85
2023-04-16T12:53:11.593Z,3.05
2023-04-16T12:55:38.797Z,3.80
2023-04-16T12:58:05.761Z,2.88
2023-04-16T13:00:32.856Z,3.58
2023-04-16T13:02:59.734Z,3.08
2023-04-16T13:05:27.184Z,5.43
2023-04-16T13:07:55.119Z,3.83
2023-04-16T13:10:22.216Z,2.97
2023-04-16T13:12:49.191Z,3.22
2023-04-16T13:15:41.447Z,3.17
2023-04-16T13:18:08.413Z,3.10
2023-04-16T13:20:36.048Z,3.58
2023-04-16T13:23:04.930Z,2.88
2023-04-16T13:25:31.908Z,3.50
2023-04-16T13:27:58.478Z,2.78
2023-04-16T13:30:26.131Z,3.03
2023-04-16T13:32:52.708Z,2.97
2023-04-16T13:35:19.318Z,2.75
2023-04-16T13:37:51.796Z,3.33
2023-04-16T13:40:18.445Z,2.90
2023-04-16T13:42:59.509Z,2.92
2023-04-16T13:45:28.856Z,2.60
2023-04-16T13:47:57.262Z,2.55
2023-04-16T13:50:26.331Z,2.95
2023-04-16T13:52:53.978Z,3.35
2023-04-16T13:55:30.606Z,3.25
2023-04-16T13:57:57.361Z,3.05
2023-04-16T14:00:25.500Z,2.80
2023-04-16T14:02:52.715Z,2.85
2023-04-16T14:05:19.565Z,2.80
2023-04-16T14:07:46.383Z,2.90
2023-04-16T14:10:13.028Z,3.30
2023-04-16T14:12:39.808Z,2.58
2023-04-16T14:15:07.590Z,2.97
2023-04-16T14:17:34.227Z,2.87
2023-04-16T14:20:01.029Z,2.55
2023-04-16T14:22:27.733Z,2.40
2023-04-16T14:24:54.308Z,2.33
2023-04-16T14:27:21.038Z,2.70
2023-04-16T14:29:47.683Z,2.38
2023-04-16T14:32:14.678Z,3.63
2023-04-16T14:34:41.265Z,3.13
2023-04-16T14:37:07.845Z,3.05
2023-04-16T14:39:34.497Z,2.25
2023-04-16T14:42:01.094Z,2.63
2023-04-16T14:44:27.691Z,2.95
2023-04-16T14:46:55.317Z,2.72
2023-04-16T14:49:21.916Z,3.22
2023-04-16T14:51:49.019Z,2.53
2023-04-16T14:54:15.773Z,3.08
2023-04-16T14:56:42.363Z,2.90
2023-04-16T14:59:09.273Z,2.47
2023-04-16T15:01:39.558Z,2.67
2023-04-16T15:04:06.741Z,2.63
2023-04-16T15:06:34.011Z,2.88
2023-04-16T15:09:01.217Z,2.45
2023-04-16T15:11:28.696Z,2.65
2023-04-16T15:13:55.345Z,2.33
2023-04-16T15:16:21.970Z,2.33
2023-04-16T15:18:50.819Z,2.22
2023-04-16T15:21:17.430Z,1.80
2023-04-16T15:23:44.119Z,2.42
2023-04-16T15:26:10.735Z,1.95
2023-04-16T15:28:37.333Z,2.40
2023-04-16T15:31:04.360Z,2.28
2023-04-16T15:33:31.170Z,2.10
2023-04-16T15:35:57.766Z,2.53
2023-04-16T15:38:24.342Z,2.38
2023-04-16T15:40:50.985Z,1.73
2023-04-16T15:43:17.593Z,2.20
2023-04-16T15:45:44.223Z,1.90
2023-04-16T15:48:10.979Z,1.50
2023-04-16T15:50:37.609Z,1.60
2023-04-16T15:53:04.201Z,2.40
2023-04-16T15:55:32.396Z,2.17
2023-04-16T15:57:58.967Z,2.58
2023-04-16T16:00:26.008Z,1.83
2023-04-16T16:02:52.843Z,1.58
2023-04-16T16:05:19.561Z,1.65
2023-04-16T16:07:46.434Z,1.40
2023-04-16T16:10:13.479Z,1.33
2023-04-16T16:12:40.862Z,1.17
2023-04-16T16:15:07.867Z,1.33
2023-04-16T16:17:34.552Z,1.25
2023-04-16T16:20:01.388Z,1.50
2023-04-16T16:22:28.596Z,1.52
2023-04-16T16:24:56.089Z,1.30
2023-04-16T16:27:23.040Z,1.00
2023-04-16T16:29:49.768Z,1.27
2023-04-16T16:32:16.699Z,1.15
2023-04-16T16:34:43.356Z,1.40
2023-04-16T16:37:10.061Z,1.38
2023-04-16T16:42:21.171Z,1.13
2023-04-16T16:44:48.844Z,1.10
2023-04-16T16:47:15.538Z,1.00
2023-04-16T16:49:45.897Z,1.40
2023-04-16T16:52:12.563Z,1.73
2023-04-16T16:55:18.654Z,2.65
2023-04-16T16:57:47.040Z,1.92
2023-04-16T17:00:15.154Z,1.85
2023-04-16T17:02:42.075Z,1.48
2023-04-16T17:05:09.393Z,2.28
2023-04-16T17:07:36.510Z,1.65
2023-04-16T17:10:06.079Z,1.70
2023-04-16T17:12:33.390Z,3.90
2023-04-16T17:15:00.085Z,2.50
2023-04-16T17:17:28.099Z,4.68
2023-04-16T17:19:54.877Z,2.22
2023-04-16T17:22:21.754Z,2.00
2023-04-16T17:24:48.407Z,1.60
2023-04-16T17:27:15.043Z,2.13
2023-04-16T17:29:41.693Z,1.77
2023-04-16T17:32:08.419Z,2.20
2023-04-16T17:34:35.517Z,1.52
2023-04-16T17:37:02.203Z,1.40
2023-04-16T17:39:31.982Z,1.42
2023-04-16T17:42:01.198Z,2.05
2023-04-16T17:44:28.190Z,2.40
2023-04-16T17:46:56.023Z,2.17
2023-04-16T17:49:22.857Z,1.67
2023-04-16T17:51:49.505Z,2.10
2023-04-16T17:54:16.132Z,2.30
2023-04-16T17:56:42.798Z,1.50
2023-04-16T17:59:09.419Z,2.05
2023-04-16T18:01:36.232Z,1.85
2023-04-16T18:04:02.910Z,1.30
2023-04-16T18:06:29.644Z,1.50
2023-04-16T18:08:56.779Z,2.80
2023-04-16T18:11:23.329Z,2.55
2023-04-16T18:13:49.939Z,2.05
2023-04-16T18:16:17.371Z,1.83
2023-04-16T18:18:44.922Z,1.60
2023-04-16T18:21:12.378Z,1.58
2023-04-16T18:23:42.900Z,1.67
2023-04-16T18:26:11.097Z,1.65
2023-04-16T18:28:37.946Z,1.75
2023-04-16T18:31:06.800Z,1.83
2023-04-16T18:33:54.253Z,1.63
2023-04-16T18:36:21.190Z,2.22
2023-04-16T18:39:00.198Z,2.05
2023-04-16T18:41:28.029Z,3.00
2023-04-16T18:43:57.922Z,3.05
2023-04-16T18:46:25.280Z,2.35
2023-04-16T18:48:53.099Z,2.28
2023-04-16T18:51:19.700Z,2.20
2023-04-16T18:53:47.079Z,2.17
2023-04-16T18:58:43.207Z,2.95
2023-04-16T19:01:13.008Z,2.42
2023-04-16T19:03:40.028Z,2.88
2023-04-16T19:06:06.810Z,2.85
2023-04-16T19:08:33.730Z,3.55
2023-04-16T19:11:00.411Z,3.20
2023-04-16T19:13:27.145Z,2.58
2023-04-16T19:16:01.176Z,2.97
2023-04-16T19:18:28.070Z,2.90
2023-04-16T19:21:01.271Z,2.45
2023-04-16T19:23:28.233Z,2.65
2023-04-16T19:25:57.874Z,2.58
2023-04-16T19:28:25.561Z,2.60
2023-04-16T19:30:52.955Z,2.60
2023-04-16T19:33:20.085Z,2.92
2023-04-16T19:35:47.542Z,2.75
2023-04-16T19:38:14.307Z,2.75
2023-04-16T19:40:43.716Z,2.45
2023-04-16T19:43:10.416Z,2.60
2023-04-16T19:45:46.194Z,2.50
2023-04-16T19:48:13.528Z,2.53
2023-04-16T19:50:41.391Z,2.67
2023-04-16T19:53:08.996Z,2.40
2023-04-16T19:55:35.872Z,2.50
2023-04-16T19:58:06.278Z,2.78
2023-04-16T20:00:33.969Z,2.22
2023-04-16T20:03:00.860Z,2.38
2023-04-16T20:05:28.419Z,2.80
2023-04-16T20:07:55.902Z,3.15
2023-04-16T20:10:22.999Z,3.80
2023-04-16T20:12:50.869Z,3.08
2023-04-16T20:15:18.396Z,2.90
2023-04-16T20:17:45.124Z,2.63
2023-04-16T20:20:11.850Z,2.85
2023-04-16T20:22:39.527Z,2.60
2023-04-16T20:25:07.199Z,3.15
2023-04-16T20:27:34.099Z,3.55
2023-04-16T20:30:01.905Z,3.65
2023-04-16T20:32:28.858Z,2.63
2023-04-16T20:34:55.726Z,4.03
2023-04-16T20:37:22.688Z,2.20
2023-04-16T20:39:50.269Z,2.95
2023-04-16T20:42:16.867Z,2.85
2023-04-16T20:44:50.302Z,2.58
2023-04-16T20:47:17.327Z,3.50
2023-04-16T20:49:47.313Z,3.25
2023-04-16T20:52:14.816Z,2.95
2023-04-16T20:54:41.560Z,2.80
2023-04-16T20:57:08.370Z,2.53
2023-04-16T20:59:36.828Z,3.17
2023-04-16T21:02:03.747Z,2.63
2023-04-16T21:04:30.534Z,3.30
2023-04-16T21:06:57.392Z,3.58
2023-04-16T21:09:24.601Z,3.72
2023-04-16T21:11:51.434Z,2.85
2023-04-16T21:14:18.417Z,3.30
2023-04-16T21:16:45.211Z,2.80
2023-04-16T21:19:12.016Z,2.55
2023-04-16T21:21:38.948Z,3.20
2023-04-16T21:24:05.957Z,2.67
2023-04-16T21:26:32.572Z,2.53
2023-04-16T21:28:59.223Z,3.25
2023-04-16T21:31:26.170Z,3.10
2023-04-16T21:33:52.804Z,2.63
2023-04-16T21:36:19.605Z,3.17
2023-04-16T21:38:49.782Z,2.95
2023-04-16T21:41:16.854Z,2.58
2023-04-16T21:43:43.579Z,2.53
2023-04-16T21:46:10.457Z,2.78
2023-04-16T21:48:37.121Z,3.50
2023-04-16T21:51:07.087Z,3.55
2023-04-16T21:53:34.069Z,2.90
2023-04-16T21:56:00.784Z,3.08
2023-04-16T21:58:27.412Z,2.47
2023-04-16T22:00:54.383Z,2.92
2023-04-16T22:03:28.200Z,2.25
2023-04-16T22:06:00.835Z,2.58
2023-04-16T22:08:28.924Z,2.55
2023-04-16T22:10:59.624Z,3.00
2023-04-16T22:13:26.526Z,2.15
2023-04-16T22:15:53.604Z,2.53
2023-04-16T22:18:20.358Z,2.85
2023-04-16T22:20:51.025Z,2.45
2023-04-16T22:23:17.737Z,2.88
2023-04-16T22:25:44.526Z,3.05
2023-04-16T22:28:11.383Z,2.88
2023-04-16T22:30:38.207Z,2.33
2023-04-16T22:33:05.296Z,2.47
2023-04-16T22:35:31.974Z,2.63
2023-04-16T22:37:58.582Z,2.65
2023-04-16T22:40:25.148Z,2.08
2023-04-16T22:42:51.715Z,2.58
2023-04-16T22:45:18.384Z,2.90
2023-04-16T22:47:45.100Z,3.15
2023-04-16T22:50:11.839Z,3.72
2023-04-16T22:52:38.465Z,2.13
2023-04-16T22:55:05.662Z,2.50
2023-04-16T22:57:32.628Z,2.92
2023-04-16T22:59:59.168Z,2.25
2023-04-16T23:02:26.059Z,2.72
2023-04-16T23:04:52.725Z,2.67
2023-04-16T23:07:19.308Z,2.92
2023-04-16T23:09:46.112Z,3.20
2023-04-16T23:12:12.738Z,2.58
2023-04-16T23:14:39.465Z,2.13
2023-04-16T23:17:06.029Z,2.28
2023-04-16T23:19:32.611Z,1.95
2023-04-16T23:21:59.221Z,2.20
2023-04-16T23:24:26.527Z,2.47
2023-04-16T23:26:53.233Z,2.20
2023-04-16T23:29:20.832Z,2.40
2023-04-16T23:31:47.817Z,2.72
2023-04-16T23:34:14.528Z,2.20
2023-04-16T23:36:41.213Z,2.28
2023-04-16T23:39:07.834Z,2.67
2023-04-16T23:41:34.781Z,2.53
2023-04-16T23:44:01.402Z,3.08
2023-04-16T23:46:28.030Z,2.60
2023-04-16T23:48:55.432Z,3.40
2023-04-16T23:51:22.153Z,4.05
2023-04-16T23:53:48.849Z,3.67
2023-04-16T23:56:15.957Z,4.00
2023-04-16T23:58:42.560Z,3.75
